Date,TemperatureHighF,TemperatureAvgF,TemperatureLowF,DewpointHighF,DewpointAvgF,DewpointLowF,HumidityHigh,HumidityAvg,HumidityLow,PressureMaxIn,PressureMinIn,WindSpeedMaxMPH,WindSpeedAvgMPH,GustSpeedMaxMPH,PrecipitationSumIn
2012-1-1,62.9,62.9,62.9,58.3,58.3,58.3,85,85,85,30.40,29.98,92,92,92,0.00
2012-1-2,62.9,62.9,62.9,58.3,58.3,58.3,85,85,85,30.53,30.24,92,92,92,0.00
2012-1-3,62.9,62.9,62.9,58.3,58.3,58.3,85,85,85,30.24,29.77,92,92,92,0.00
2012-1-4,62.9,62.9,62.9,58.3,58.3,58.3,85,85,85,30.05,29.90,92,92,92,0.00
2012-1-5,62.9,62.9,62.9,58.3,58.3,58.3,85,85,85,29.91,29.63,92,92,92,0.00
2012-1-6,62.9,62.9,62.9,58.3,58.3,58.3,85,85,85,29.98,29.69,92,92,92,0.00
2012-1-7,62.9,62.9,62.9,58.3,58.3,58.3,85,85,85,30.14,29.98,92,92,92,0.00
2012-1-8,62.9,62.9,62.9,58.3,58.3,58.3,85,85,85,30.14,29.87,92,92,92,0.00
2012-1-9,62.9,62.9,62.9,58.3,58.3,58.3,85,85,85,29.93,29.84,92,92,92,0.00
2012-1-10,62.9,62.9,62.9,58.3,58.3,58.3,85,85,85,29.89,29.77,92,92,92,0.00
2012-2-11,62.9,62.9,62.9,58.3,58.3,58.3,85,85,85,30.43,30.41,92,92,92,0.00
2012-2-12,62.9,2.7,0.0,58.3,2.5,0.0,85,4,85,30.41,29.93,92,92,92,0.00
2012-2-13,0.0,0.0,0.0,0.0,0.0,0.0,0,0,100,29.93,29.69,92,92,92,0.00
2012-2-14,0.0,0.0,0.0,0.0,0.0,0.0,0,0,100,29.79,29.67,92,92,92,0.00
2012-2-15,0.0,0.0,0.0,0.0,0.0,0.0,0,0,100,30.00,29.79,92,92,92,0.00
2012-2-16,0.0,0.0,0.0,0.0,0.0,0.0,0,0,100,30.07,29.92,92,92,92,0.00
2012-2-17,0.0,0.0,0.0,0.0,0.0,0.0,0,0,100,30.17,29.93,92,92,92,0.00
2012-2-18,0.0,0.0,0.0,0.0,0.0,0.0,0,0,100,30.17,30.01,92,92,92,0.00
2012-2-19,0.0,0.0,0.0,0.0,0.0,0.0,0,0,100,30.01,29.84,92,92,92,0.00
2012-2-20,0.0,0.0,0.0,0.0,0.0,0.0,0,0,100,29.88,29.63,92,92,92,0.00
2012-2-21,0.0,0.0,0.0,0.0,0.0,0.0,0,0,100,29.65,29.59,92,92,92,0.00
2012-2-22,0.0,0.0,0.0,0.0,0.0,0.0,0,0,100,29.62,29.50,92,92,92,0.00
2012-2-23,0.0,0.0,0.0,0.0,0.0,0.0,0,0,100,29.84,29.53,92,92,92,0.00
2012-2-24,0.0,0.0,0.0,0.0,0.0,0.0,0,0,100,30.16,29.84,92,92,92,0.00
2012-2-25,0.0,0.0,0.0,0.0,0.0,0.0,0,0,100,30.20,29.89,92,92,92,0.00
2012-2-26,0.0,0.0,0.0,0.0,0.0,0.0,0,0,100,30.15,29.72,92,92,92,0.00
2012-2-27,0.0,0.0,0.0,0.0,0.0,0.0,0,0,100,30.38,30.15,92,92,92,0.00
2012-2-28,0.0,0.0,0.0,0.0,0.0,0.0,0,0,100,30.21,29.72,92,92,92,0.00
2012-2-29,0.0,0.0,0.0,0.0,0.0,0.0,0,0,100,29.80,29.63,92,92,92,0.00
2012-3-1,0.0,0.0,0.0,0.0,0.0,0.0,0,0,100,29.82,29.70,92,92,92,0.00
2012-3-2,0.0,0.0,0.0,0.0,0.0,0.0,0,0,100,29.79,29.63,92,92,92,0.00
2012-3-3,0.0,0.0,0.0,0.0,0.0,0.0,0,0,100,29.93,29.79,92,92,92,0.00
2012-3-4,0.0,0.0,0.0,0.0,0.0,0.0,0,0,100,30.08,29.87,92,92,92,0.00
2012-3-5,0.0,0.0,0.0,0.0,0.0,0.0,0,0,100,30.07,29.71,92,92,92,0.00
2012-3-6,0.0,0.0,0.0,0.0,0.0,0.0,0,0,100,29.71,29.52,92,92,92,0.00
2012-3-7,0.0,0.0,0.0,0.0,0.0,0.0,0,0,100,30.04,29.68,92,92,92,0.00
2012-3-8,0.0,0.0,0.0,0.0,0.0,0.0,0,0,100,30.42,30.01,92,92,92,0.00
2012-3-9,0.0,0.0,0.0,0.0,0.0,0.0,0,0,100,30.43,29.88,92,92,92,0.00
2012-3-10,0.0,0.0,0.0,0.0,0.0,0.0,0,0,100,29.87,29.79,92,92,92,0.00
2012-3-11,0.0,0.0,0.0,0.0,0.0,0.0,0,0,100,29.84,29.67,92,92,92,0.00
2012-3-12,0.0,0.0,0.0,0.0,0.0,0.0,0,0,100,29.88,29.62,92,92,92,0.00
2012-3-13,0.0,0.0,0.0,0.0,0.0,0.0,0,0,100,29.94,29.62,92,92,92,0.00
2012-3-14,0.0,0.0,0.0,0.0,0.0,0.0,0,0,100,29.99,29.61,92,92,92,0.00
2012-3-15,0.0,0.0,0.0,0.0,0.0,0.0,0,0,100,30.05,29.93,92,92,92,0.00
2012-3-16,0.0,0.0,0.0,0.0,0.0,0.0,0,0,100,29.93,29.63,92,92,92,0.00
2012-3-17,0.0,0.0,0.0,0.0,0.0,0.0,0,0,100,29.69,29.62,92,92,92,0.00
2012-3-18,0.0,0.0,0.0,0.0,0.0,0.0,0,0,100,29.62,29.52,92,92,92,0.00
2012-3-19,0.0,0.0,0.0,0.0,0.0,0.0,0,0,100,29.63,29.50,92,92,92,0.00
2012-3-20,0.0,0.0,0.0,0.0,0.0,0.0,0,0,100,29.93,29.62,92,92,92,0.00
2012-3-21,0.0,0.0,0.0,0.0,0.0,0.0,0,0,100,30.02,29.89,92,92,92,0.00
2012-3-22,0.0,0.0,0.0,0.0,0.0,0.0,0,0,100,30.04,29.92,92,92,92,0.00
2012-3-23,68.6,47.0,0.0,57.6,42.9,0.0,95,65,63,29.94,29.88,99,96,102,0.00
2012-3-24,64.7,33.1,0.0,53.7,2.3,0.0,90,4,90,30.19,29.88,99,70,99,0.00
2012-3-25,43.9,35.2,26.7,0.0,0.0,0.0,0,0,100,30.25,30.16,95,95,95,0.00
2012-3-26,51.0,43.8,35.9,0.0,0.0,0.0,0,0,100,30.16,29.57,95,95,95,0.00
2012-3-27,54.7,46.4,39.3,0.0,0.0,0.0,0,0,100,29.91,29.43,95,95,95,0.00
2012-3-28,44.5,39.2,34.6,0.0,0.0,0.0,0,0,100,30.07,29.91,95,95,95,0.00
2012-3-29,46.1,41.3,35.8,0.0,0.0,0.0,0,0,100,30.02,29.80,95,95,95,0.00
2012-3-30,35.8,32.3,31.9,0.0,0.0,0.0,0,0,100,29.85,29.73,95,95,95,0.00
2012-3-31,32.1,1.3,0.0,0.0,0.0,0.0,0,0,100,29.73,29.68,95,95,95,0.00
2012-4-1,0.0,0.0,0.0,0.0,0.0,0.0,0,0,100,29.70,29.54,95,95,95,0.00
2012-4-2,0.0,0.0,0.0,0.0,0.0,0.0,0,0,100,30.03,29.58,95,95,95,0.00
2012-4-3,0.0,0.0,0.0,0.0,0.0,0.0,0,0,100,30.17,30.03,95,95,95,0.00
2012-4-4,0.0,0.0,0.0,0.0,0.0,0.0,0,0,100,30.09,29.94,95,95,95,0.00
2012-4-5,0.0,0.0,0.0,0.0,0.0,0.0,0,0,100,30.05,29.95,95,95,95,0.00
2012-4-6,0.0,0.0,0.0,0.0,0.0,0.0,0,0,100,30.07,29.88,95,95,95,0.00
2012-4-7,0.0,0.0,0.0,0.0,0.0,0.0,0,0,100,30.09,29.82,95,95,95,0.00
2012-4-8,0.0,0.0,0.0,0.0,0.0,0.0,0,0,100,30.10,30.03,95,95,95,0.00
2012-4-9,0.0,0.0,0.0,0.0,0.0,0.0,0,0,100,30.16,30.09,95,95,95,0.00
2012-4-10,0.0,0.0,0.0,0.0,0.0,0.0,0,0,100,30.29,30.15,95,95,95,0.00
2012-4-11,0.0,0.0,0.0,0.0,0.0,0.0,0,0,100,30.34,30.10,95,95,95,0.00
2012-4-12,0.0,0.0,0.0,0.0,0.0,0.0,0,0,100,30.10,29.88,95,95,95,0.01
2012-4-13,0.0,0.0,0.0,0.0,0.0,0.0,0,0,100,29.88,29.62,95,95,95,0.30
2012-4-14,0.0,0.0,0.0,0.0,0.0,0.0,0,0,100,29.78,29.65,95,95,95,0.00
2012-4-15,0.0,0.0,0.0,0.0,0.0,0.0,0,0,100,29.73,29.62,95,95,95,0.46
2012-4-16,0.0,0.0,0.0,0.0,0.0,0.0,0,0,100,30.12,29.73,95,95,95,0.01
2012-4-17,0.0,0.0,0.0,0.0,0.0,0.0,0,0,100,30.15,29.86,95,95,95,0.00
2012-4-18,0.0,0.0,0.0,0.0,0.0,0.0,0,0,100,30.00,29.81,95,95,95,0.17
2012-4-19,0.0,0.0,0.0,0.0,0.0,0.0,0,0,100,30.03,29.96,95,95,95,0.00
2012-4-20,0.0,0.0,0.0,0.0,0.0,0.0,0,0,100,30.08,29.90,95,95,95,0.00
2012-4-21,0.0,0.0,0.0,0.0,0.0,0.0,0,0,100,30.07,29.77,95,95,95,0.08
2012-4-22,0.0,0.0,0.0,0.0,0.0,0.0,0,0,100,30.21,30.07,95,95,95,0.00
2012-4-23,0.0,0.0,0.0,0.0,0.0,0.0,0,0,100,30.10,29.75,95,95,95,0.00
2012-4-24,0.0,0.0,0.0,0.0,0.0,0.0,0,0,100,29.75,29.53,95,95,95,0.00
2012-4-25,0.0,0.0,0.0,0.0,0.0,0.0,0,0,100,29.97,29.50,95,95,95,0.00
2012-4-26,0.0,0.0,0.0,0.0,0.0,0.0,0,0,100,30.16,29.97,95,95,95,0.00
2012-4-27,0.0,0.0,0.0,0.0,0.0,0.0,0,0,100,30.07,29.95,95,95,95,0.12
2012-4-28,0.0,0.0,0.0,0.0,0.0,0.0,0,0,100,30.09,29.97,95,95,95,0.02
2012-4-29,0.0,0.0,0.0,0.0,0.0,0.0,0,0,100,30.08,29.92,95,95,95,0.00
2012-4-30,0.0,0.0,0.0,0.0,0.0,0.0,0,0,100,29.92,29.71,95,95,95,0.00
2012-5-1,0.0,0.0,0.0,0.0,0.0,0.0,0,0,100,29.71,29.51,95,95,95,0.00
2012-5-2,0.0,0.0,0.0,0.0,0.0,0.0,0,0,100,29.80,29.60,95,95,95,0.03
2012-5-3,71.1,50.8,0.0,0.0,0.0,0.0,0,0,100,29.97,29.78,95,95,95,0.04
2012-5-4,64.7,56.2,49.9,0.0,0.0,0.0,0,0,100,30.01,29.91,95,95,95,0.00
2012-5-5,70.6,59.2,49.6,0.0,0.0,0.0,0,0,100,30.01,29.90,95,95,95,0.00
2012-5-6,74.2,61.2,53.1,0.0,0.0,0.0,0,0,100,29.96,29.90,95,95,95,0.00
2012-5-7,63.4,55.1,48.6,0.0,0.0,0.0,0,0,100,29.94,29.86,95,95,95,0.00
2012-5-8,51.0,48.0,47.3,45.1,29.8,0.0,91,60,86,30.04,29.88,99,93,104,0.01
2012-5-9,47.6,47.6,47.6,45.1,45.1,45.1,91,91,91,30.05,29.86,99,99,99,0.00
2012-5-10,47.6,47.6,47.6,45.1,45.1,45.1,91,91,91,29.86,29.68,99,99,99,0.00
2012-5-11,47.6,47.6,47.6,45.1,45.1,45.1,91,91,91,30.17,29.81,99,99,99,0.00
2012-5-12,47.6,47.6,47.6,45.1,45.1,45.1,91,91,91,30.26,30.12,99,99,99,0.00
2012-5-13,47.6,47.6,47.6,45.1,45.1,45.1,91,91,91,30.13,29.91,99,99,99,0.00
2012-5-14,47.6,47.6,47.6,45.1,45.1,45.1,91,91,91,29.94,29.80,99,99,99,0.00
2012-5-15,47.6,47.6,47.6,45.1,45.1,45.1,91,91,91,30.07,29.82,99,99,99,0.00
2012-5-16,47.6,47.6,47.6,45.1,45.1,45.1,91,91,91,30.12,29.84,99,99,99,0.00
2012-5-17,47.6,47.6,47.6,45.1,45.1,45.1,91,91,91,29.83,29.58,99,99,99,0.00
2012-5-18,47.6,47.6,47.6,45.1,45.1,45.1,91,91,91,29.63,29.58,99,99,99,0.00
2012-5-19,47.6,47.6,47.6,45.1,45.1,45.1,91,91,91,29.98,29.61,99,99,99,0.00
2012-5-20,47.6,47.6,47.6,45.1,45.1,45.1,91,91,91,30.10,29.98,99,99,99,0.00
2012-5-21,47.6,47.6,47.6,45.1,45.1,45.1,91,91,91,30.12,29.89,99,99,99,0.00
2012-5-22,47.6,47.6,47.6,45.1,45.1,45.1,91,91,91,29.89,29.45,99,99,99,0.00
2012-5-23,47.6,47.6,47.6,45.1,42.7,42.4,91,83,82,29.56,29.44,99,99,99,0.60
2012-5-24,47.6,47.6,47.6,42.7,42.7,42.7,83,83,83,29.77,29.54,99,99,99,0.00
2012-5-25,47.6,47.6,47.6,42.7,42.7,42.7,83,83,83,30.09,29.77,99,99,99,0.00
2012-5-26,47.6,47.6,47.6,42.7,42.7,42.7,83,83,83,30.12,29.81,99,99,99,0.00
2012-5-27,60.5,57.7,47.6,57.9,54.5,42.7,91,89,83,29.85,29.57,112,98,112,0.85
2012-5-28,60.2,60.2,60.2,57.3,57.3,57.3,90,90,90,29.76,29.67,100,100,100,0.00
2012-5-29,60.2,60.2,60.2,57.3,57.3,57.3,90,90,90,30.00,29.70,100,100,100,0.00
2012-5-30,60.2,60.2,60.2,57.3,57.3,57.3,90,90,90,30.04,29.97,100,100,100,0.00
2012-5-31,60.2,60.2,60.2,57.3,57.3,57.3,90,90,90,30.05,29.93,100,100,100,0.00
2012-6-1,60.2,60.2,60.2,57.3,57.3,57.3,90,90,90,29.93,29.78,100,100,100,0.00
2012-6-2,60.2,60.2,60.2,57.3,40.7,20.1,90,54,21,29.82,29.74,100,100,100,0.00
2012-6-3,60.2,60.2,60.2,52.6,44.4,35.2,76,57,39,29.83,29.74,100,100,100,0.00
2012-6-4,60.2,60.2,60.2,54.7,35.4,19.0,82,44,20,29.95,29.83,100,100,100,0.00
2012-6-5,60.2,60.2,60.2,48.8,32.7,21.2,66,38,22,29.97,29.89,100,100,100,0.00
2012-6-6,60.2,60.2,60.2,46.7,38.2,26.1,61,45,27,29.94,29.90,100,100,100,0.00
2012-6-7,60.2,60.2,60.2,51.2,43.7,27.9,72,56,29,29.96,29.83,100,100,100,0.00
2012-6-8,60.2,60.2,60.2,52.6,41.0,26.1,76,51,27,29.85,29.69,100,100,100,0.00
2012-6-9,60.2,60.2,60.2,51.9,37.7,27.0,74,45,28,29.70,29.50,100,100,100,0.00
2012-6-10,64.5,62.8,60.2,60.4,55.8,35.2,89,79,39,29.72,29.53,100,100,100,0.19
2012-6-11,63.7,59.5,59.3,58.5,53.7,53.5,83,81,81,30.04,29.60,100,8,100,0.00
2012-6-12,59.3,59.3,59.3,53.5,53.5,53.5,81,81,81,30.14,29.98,13,2,14,0.00
2012-6-13,59.3,59.3,59.3,53.5,53.5,53.5,81,81,81,29.98,29.72,22,5,26,0.00
2012-6-14,63.9,61.1,59.3,58.8,57.2,53.5,89,87,79,29.85,29.68,113,84,113,0.05
2012-6-15,61.2,61.2,61.2,57.6,57.6,57.6,88,88,88,29.95,29.85,96,96,96,0.00
2012-6-16,61.2,61.2,61.2,57.6,57.6,57.6,88,88,88,29.92,29.83,96,96,96,0.00
2012-6-17,61.2,61.2,61.2,57.6,57.6,57.6,88,88,88,29.83,29.45,96,96,96,0.00
2012-6-18,61.2,61.2,61.2,57.6,57.6,57.6,88,88,88,29.71,29.44,96,96,96,0.00
2012-6-19,61.2,61.2,61.2,57.6,57.6,57.6,88,88,88,29.76,29.67,96,96,96,0.00
2012-6-20,61.2,60.1,59.5,57.6,56.6,56.0,88,88,88,29.86,29.69,96,96,96,0.00
2012-6-21,59.5,59.5,59.5,56.0,56.0,56.0,88,88,88,29.98,29.86,96,96,96,0.00
2012-6-22,59.5,59.5,59.5,56.0,56.0,56.0,88,88,88,30.02,29.89,96,96,96,0.00
2012-6-23,59.5,59.5,59.5,56.0,56.0,56.0,88,88,88,29.92,29.78,96,96,96,0.00
2012-6-24,59.5,59.5,59.5,56.0,56.0,56.0,88,88,88,30.08,29.92,96,96,96,0.00
2012-6-25,59.5,59.5,59.5,56.0,56.0,56.0,88,88,88,30.10,29.91,96,96,96,0.00
2012-6-26,59.5,59.5,59.5,56.0,56.0,56.0,88,88,88,29.93,29.62,96,96,96,0.00
2012-6-27,59.5,59.5,59.5,56.0,56.0,56.0,88,88,88,29.85,29.56,96,96,96,0.00
2012-6-28,59.5,59.5,59.5,56.0,56.0,56.0,88,88,88,29.92,29.85,96,96,96,0.00
2012-6-29,59.5,59.5,59.5,56.0,56.0,56.0,88,88,88,29.88,29.80,96,96,96,0.00
2012-6-30,59.5,59.5,59.5,56.0,56.0,56.0,88,88,88,29.90,29.81,96,96,96,0.00
2012-7-1,59.5,59.5,59.5,56.0,56.0,56.0,88,88,88,29.86,29.78,96,96,96,0.00
2012-7-2,80.3,76.0,59.5,75.9,69.0,56.0,88,79,76,29.80,29.66,96,6,96,0.00
2012-7-3,76.0,76.0,76.0,68.7,68.7,68.7,78,78,78,29.83,29.74,2,2,2,0.00
2012-7-7,63.7,63.7,63.7,56.7,56.7,56.7,78,78,78,30.14,30.09,112,112,112,0.00
2012-7-8,63.7,63.7,63.7,56.7,56.7,56.7,78,78,78,30.12,30.07,112,112,112,0.00
2012-7-9,89.5,69.0,63.7,60.7,57.1,52.3,78,68,29,30.14,30.08,112,75,112,0.00
2012-7-10,72.8,66.5,65.6,58.5,58.1,57.2,77,75,60,30.11,30.00,12,1,14,0.00
2012-7-11,65.6,65.6,65.6,58.2,58.2,58.2,77,77,77,30.01,29.89,21,5,21,0.00
2012-7-12,65.6,65.6,65.6,58.2,58.2,58.2,77,77,77,29.92,29.83,17,3,20,0.00
2012-7-13,65.6,65.6,65.6,58.2,58.2,58.2,77,77,77,29.94,29.87,10,1,11,0.00
2012-7-14,65.6,65.6,65.6,58.2,58.2,58.2,77,77,77,30.01,29.94,7,0,10,0.00
2012-7-15,65.6,65.6,65.6,58.2,58.2,58.2,77,77,77,29.99,29.74,20,3,27,0.00
2012-7-16,65.6,65.6,65.6,58.2,58.2,58.2,77,77,77,29.83,29.68,22,3,27,0.00
2012-7-17,65.6,65.6,65.6,58.2,58.2,58.2,77,77,77,29.91,29.80,112,20,113,0.00
2012-7-18,83.8,73.7,65.6,66.7,62.6,58.2,80,69,52,29.92,29.86,5,3,6,0.00
2012-7-19,71.1,69.1,67.3,67.8,66.0,63.6,95,90,80,29.97,29.91,100,31,100,0.00
2012-7-20,69.4,69.4,69.4,66.7,66.7,66.7,91,91,91,29.99,29.91,41,41,41,0.00
2012-7-21,69.4,69.4,69.4,66.7,66.7,66.7,91,91,91,30.04,29.92,41,41,41,0.00
2012-7-22,69.4,69.4,69.4,66.7,66.7,66.7,91,91,91,29.94,29.81,41,41,41,0.00
2012-7-23,69.4,69.4,69.4,66.7,66.7,66.7,91,91,91,30.00,29.90,41,41,41,0.01
2012-7-24,73.3,69.4,69.4,68.9,66.7,66.7,91,91,85,29.95,29.70,41,41,41,0.97
2012-7-25,72.0,70.2,69.9,68.3,57.5,35.3,92,68,29,29.75,29.66,112,102,113,0.01
2012-7-26,69.9,69.9,69.9,63.8,58.4,49.9,81,67,49,29.93,29.72,101,101,101,0.00
2012-7-27,69.9,69.9,69.9,66.8,54.4,40.3,90,61,34,30.03,29.93,101,101,101,0.00
2012-7-28,69.9,69.9,69.9,62.7,57.0,48.2,78,64,46,30.02,29.92,101,101,101,0.00
2012-7-29,69.9,69.9,69.9,65.2,58.3,48.2,85,68,46,29.96,29.82,101,101,101,0.00
2012-7-30,69.9,69.9,69.9,64.8,54.2,42.5,84,59,37,29.95,29.83,101,101,101,0.00
2012-7-31,69.9,69.9,69.9,65.2,55.6,45.8,85,62,42,29.97,29.84,101,101,101,0.00
2012-8-1,69.9,69.9,69.9,63.5,54.8,38.7,80,60,34,29.89,29.78,101,101,101,0.00
2012-8-2,69.9,69.9,69.9,65.2,52.9,37.9,85,57,31,29.90,29.82,101,101,101,0.00
2012-8-3,69.9,69.9,69.9,64.8,57.6,47.6,84,66,45,29.85,29.65,101,101,101,0.00
2012-8-4,69.9,69.9,69.9,64.5,57.7,45.2,83,66,41,30.04,29.77,101,101,101,0.00
2012-8-5,69.9,69.9,69.9,64.2,51.4,37.9,82,55,31,30.10,29.99,101,101,101,0.00
2012-8-6,69.9,69.9,69.9,63.8,51.5,37.1,81,54,30,30.00,29.90,101,101,101,0.00
2012-8-7,69.9,69.9,69.9,63.5,50.6,38.7,80,52,32,30.03,29.95,101,101,101,0.00
2012-8-8,79.9,71.6,65.2,76.4,68.0,61.9,89,88,80,30.02,29.94,101,101,101,0.00
2012-8-9,69.8,62.3,61.3,66.4,58.9,58.0,89,89,89,30.10,29.99,101,101,101,0.00
2012-8-10,61.3,61.3,61.3,58.0,58.0,58.0,89,89,89,30.16,30.03,101,101,101,0.00
2012-8-11,61.3,61.3,61.3,58.0,58.0,58.0,89,89,89,30.04,29.95,101,101,101,0.00
2012-8-12,61.3,61.3,61.3,58.0,58.0,58.0,89,89,89,30.00,29.96,101,101,101,0.00
2012-8-13,61.3,61.3,61.3,58.0,58.0,58.0,89,89,89,30.04,29.96,101,101,101,0.00
2012-8-14,61.3,61.3,61.3,58.0,58.0,58.0,89,89,89,29.98,29.81,101,101,101,0.00
2012-8-15,61.3,61.3,61.3,58.0,58.0,58.0,89,89,89,29.90,29.69,101,101,101,0.00
2012-8-16,61.3,61.3,61.3,58.0,58.0,58.0,89,89,89,30.05,29.90,101,101,101,0.00
2012-8-17,61.3,61.3,61.3,58.0,58.0,58.0,89,89,89,30.08,29.96,101,101,101,0.00
2012-8-18,61.3,61.3,61.3,58.0,58.0,58.0,89,89,89,30.00,29.93,101,101,101,0.00
2012-8-19,61.3,61.3,61.3,58.0,58.0,58.0,89,89,89,30.05,29.98,101,101,101,0.00
2012-8-20,61.3,61.3,61.3,58.0,58.0,58.0,89,89,89,30.01,29.95,101,101,101,0.00
2012-8-21,61.3,61.3,61.3,58.0,58.0,58.0,89,89,89,29.98,29.88,101,101,101,0.00
2012-8-22,61.3,61.3,61.3,58.0,58.0,58.0,89,89,89,29.88,29.79,101,101,101,0.00
2012-8-23,61.3,61.3,61.3,58.0,58.0,58.0,89,89,89,29.80,29.74,101,101,101,0.00
2012-8-24,61.3,61.3,61.3,58.0,58.0,58.0,89,89,89,29.79,29.68,101,101,101,0.00
2012-8-25,61.3,61.3,61.3,58.0,58.0,58.0,89,89,89,29.90,29.69,101,101,101,0.00
2012-8-26,61.3,61.3,61.3,58.0,58.0,58.0,89,89,89,30.01,29.88,101,101,101,0.00
2012-8-27,61.3,61.3,61.3,58.0,58.0,58.0,89,89,89,30.10,30.01,101,101,101,0.00
2012-8-28,61.3,61.3,61.3,58.0,58.0,58.0,89,89,89,30.04,29.91,101,101,101,0.00
2012-8-29,61.3,61.3,61.3,58.0,58.0,58.0,89,89,89,29.92,29.68,101,101,101,0.00
2012-8-30,61.3,61.3,61.3,58.0,58.0,58.0,89,89,89,29.98,29.67,101,101,101,0.00
2012-8-31,61.3,61.3,61.3,58.0,58.0,58.0,89,89,89,30.08,29.98,101,101,101,0.00
2012-9-1,61.3,61.3,61.3,58.0,58.0,58.0,89,89,89,30.07,29.85,101,101,101,0.00
2012-9-2,61.3,61.3,61.3,58.0,58.0,58.0,89,89,89,29.86,29.76,101,101,101,0.00
2012-9-3,61.3,61.3,61.3,58.0,58.0,58.0,89,89,89,29.90,29.81,101,101,101,0.00
2012-9-4,61.3,61.3,61.3,58.0,58.0,58.0,89,89,89,29.85,29.78,101,101,101,0.00
2012-9-5,61.3,61.3,61.3,58.0,58.0,58.0,89,89,89,29.89,29.83,101,101,101,0.00
2012-9-6,61.3,61.3,61.3,58.0,58.0,58.0,89,89,89,29.97,29.88,101,101,101,0.00
2012-9-7,61.3,61.3,61.3,58.0,46.8,32.0,89,62,33,30.06,29.97,101,101,101,0.00
2012-9-8,61.3,61.3,61.3,51.5,44.2,32.0,70,55,33,30.10,29.90,101,101,101,0.00
2012-9-9,61.3,61.3,61.3,57.7,43.2,25.2,88,56,25,30.16,29.92,101,101,101,0.00
2012-9-10,61.3,61.3,61.3,46.9,35.1,21.1,59,40,21,29.92,29.63,101,101,101,0.00
2012-9-11,61.3,61.3,61.3,44.5,34.2,17.5,54,38,18,29.94,29.64,101,101,101,0.00
2012-9-12,61.3,61.3,61.3,40.4,25.8,11.7,46,28,14,30.15,29.92,101,101,101,0.00
2012-9-13,61.3,61.3,61.3,44.0,29.0,13.3,53,31,15,30.23,30.15,101,101,101,0.00
2012-9-14,61.3,61.3,61.3,52.2,34.3,16.1,72,40,17,30.25,30.12,101,101,101,0.00
2012-9-15,61.3,61.3,61.3,44.5,33.7,16.1,54,37,17,30.12,29.80,101,101,101,0.00
2012-9-16,61.3,61.3,61.3,54.0,45.3,35.5,77,57,38,30.04,29.81,101,101,101,0.00
2012-9-17,61.3,61.3,61.3,54.4,47.0,29.6,78,61,30,30.07,30.00,101,101,101,0.00
2012-9-18,61.3,61.3,61.3,56.4,46.4,32.0,84,60,33,30.04,29.71,101,101,101,0.00
2012-9-19,61.3,61.3,61.3,45.5,38.8,27.1,56,44,27,29.90,29.64,101,101,101,0.00
2012-9-20,61.3,61.3,61.3,48.6,38.7,23.2,63,45,23,29.94,29.85,101,101,101,0.00
2012-9-21,61.3,61.3,61.3,57.4,44.3,21.1,87,58,21,30.04,29.82,101,101,101,0.00
2012-9-22,61.3,61.3,61.3,54.7,44.1,29.6,79,55,30,30.23,30.04,101,101,101,0.00
2012-9-23,61.3,61.3,61.3,55.4,37.9,19.9,81,46,20,30.25,30.03,101,101,101,0.00
2012-9-24,61.3,61.3,61.3,45.0,32.2,14.8,55,35,16,30.03,29.74,101,101,101,0.00
2012-9-25,61.3,61.3,61.3,55.1,44.3,29.6,80,56,30,30.00,29.88,101,101,101,0.00
2012-9-26,61.3,61.3,61.3,55.8,42.5,24.2,82,53,25,30.12,30.00,101,101,101,0.00
2012-9-27,61.3,61.3,61.3,48.2,34.7,21.1,62,39,21,30.15,30.05,101,101,101,0.00
2012-9-28,61.3,61.3,61.3,46.9,33.7,18.7,59,37,19,30.09,30.00,101,101,101,0.00
2012-9-29,61.3,61.3,61.3,48.2,30.7,11.7,62,35,14,30.06,29.94,101,101,101,0.00
2012-9-30,61.3,61.3,61.3,44.0,33.5,18.7,53,36,19,29.94,29.82,101,101,101,0.00
2012-10-1,61.3,61.3,61.3,46.4,34.6,16.1,58,39,17,30.04,29.93,101,101,101,0.00
2012-10-2,61.3,61.3,61.3,44.0,30.1,16.1,53,33,17,29.95,29.71,101,101,101,0.00
2012-10-3,61.3,61.3,61.3,54.0,47.4,37.4,77,61,41,29.92,29.80,101,101,101,0.00
2012-10-4,61.3,44.6,33.1,58.0,38.2,25.8,94,78,64,30.13,29.85,102,74,112,0.26
2012-10-5,41.2,34.7,29.7,31.3,27.2,23.0,86,74,56,30.21,30.11,60,60,60,0.02
2012-10-6,49.1,37.5,26.7,30.1,25.2,19.7,86,64,35,30.29,30.10,60,60,60,0.01
2012-10-7,58.7,43.8,32.9,26.1,22.2,19.0,63,44,22,30.10,29.76,60,60,60,0.00
2012-10-8,54.2,46.4,39.5,44.0,33.7,25.1,78,61,48,29.76,29.58,60,60,60,0.03
2012-10-9,43.5,39.4,32.7,32.5,28.0,23.3,79,64,47,29.99,29.72,60,60,60,0.01
2012-10-10,50.5,38.5,29.0,34.3,28.6,19.4,87,70,30,30.00,29.87,60,60,60,0.01
2012-10-11,47.1,37.8,29.0,33.8,26.3,19.4,88,66,33,30.30,29.93,60,60,60,0.00
2012-10-12,53.2,40.9,28.1,23.3,18.9,11.7,74,46,20,30.30,29.82,60,60,60,0.00
2012-10-13,66.0,51.6,40.9,39.3,33.1,17.0,68,51,29,29.84,29.68,60,60,60,0.00
2012-10-14,56.5,44.1,33.8,37.2,33.4,29.2,85,67,46,29.94,29.84,60,60,60,0.00
2012-10-15,66.0,51.1,35.2,38.5,34.7,29.3,81,57,30,29.91,29.60,60,60,60,0.00
2012-10-16,72.8,61.8,51.7,46.2,43.7,36.6,76,53,35,29.61,29.37,60,60,60,0.00
2012-10-17,59.0,49.9,44.5,51.0,43.9,38.7,93,81,57,29.37,29.26,60,60,60,0.75
2012-10-18,49.4,45.3,41.3,47.5,42.2,37.1,94,89,83,29.65,29.27,60,60,60,0.34
2012-10-19,42.6,41.3,39.9,40.2,37.9,35.8,94,87,80,29.78,29.65,60,60,60,0.10
2012-10-20,51.9,45.1,41.1,43.9,39.9,35.9,93,82,71,29.77,29.67,60,60,60,0.00
2012-10-21,57.3,48.3,43.3,48.1,42.0,37.9,87,79,68,30.01,29.71,60,60,60,0.00
2012-10-22,51.7,46.1,40.6,43.3,37.4,32.8,83,72,58,30.04,29.87,60,60,60,0.00
2012-10-23,55.7,51.8,48.8,54.5,48.5,43.2,96,88,79,29.87,29.67,60,60,60,0.29
2012-10-24,48.9,40.7,36.0,44.3,34.5,29.1,84,78,73,30.00,29.83,60,60,60,0.00
2012-10-25,39.5,36.1,32.8,29.5,25.5,22.6,78,66,52,30.11,29.95,60,60,60,0.00
2012-10-26,39.8,35.6,33.1,26.2,18.8,11.5,69,51,33,30.24,30.11,60,60,60,0.00
2012-10-27,38.8,31.3,26.0,26.9,22.0,17.8,89,70,44,30.25,30.19,60,60,60,0.00
2012-10-28,38.2,31.2,24.7,32.8,26.8,21.0,89,83,77,30.22,30.12,60,60,60,0.14
2012-10-29,50.2,43.1,38.2,32.7,30.1,27.3,80,61,47,30.12,30.08,60,60,60,0.00
2012-10-30,45.7,42.0,37.9,30.1,27.9,24.8,69,57,44,30.12,30.03,60,60,60,0.00
2012-10-31,52.5,43.4,36.3,38.6,32.7,29.1,83,67,47,30.04,29.92,60,60,60,0.00
2012-11-1,37.9,30.5,27.9,32.6,22.4,19.0,81,72,62,30.12,30.04,60,60,60,0.00
2012-11-2,36.0,31.2,27.5,28.7,25.1,20.6,88,78,65,30.13,30.07,60,60,60,0.00
2012-11-3,37.3,34.4,31.2,31.6,29.9,27.5,88,83,73,30.17,30.11,60,60,60,0.06
2012-11-4,38.9,36.0,32.7,32.6,30.7,29.6,89,81,72,30.17,30.11,60,60,60,0.00
2012-11-5,43.8,37.7,34.1,36.1,31.7,30.3,92,79,61,30.17,29.77,60,60,60,0.08
2012-11-6,44.5,40.7,36.0,38.1,33.9,30.4,90,76,68,30.01,29.77,60,60,60,0.01
2012-11-7,46.8,39.7,30.0,35.1,31.5,26.3,87,73,53,30.06,29.82,60,60,60,0.00
2012-11-8,42.5,38.5,31.9,36.1,31.3,26.0,81,75,65,30.10,29.81,60,60,60,0.00
2012-11-9,39.6,34.7,30.6,33.2,28.1,24.8,86,77,70,30.11,29.90,60,60,60,0.00
2012-11-10,39.8,37.8,29.7,38.2,34.9,27.1,96,89,75,29.90,29.57,60,60,60,0.09
2012-11-11,29.8,21.8,18.3,27.2,15.6,10.4,90,77,65,29.88,29.63,60,60,60,0.01
2012-11-12,22.2,18.2,14.1,14.5,10.4,6.4,79,71,67,30.17,29.88,60,60,60,0.00
2012-11-13,32.5,24.8,15.6,25.2,18.0,8.5,85,75,68,30.19,30.15,60,60,60,0.00
2012-11-14,47.1,33.0,20.0,35.5,26.6,16.5,89,78,60,30.16,30.02,60,60,60,0.00
2012-11-15,36.9,29.5,23.0,30.9,20.9,16.5,81,70,53,30.37,30.03,60,60,60,0.00
2012-11-16,41.5,31.3,21.0,26.0,17.4,13.6,77,58,35,30.36,30.04,60,60,60,0.00
2012-11-17,50.2,40.7,34.3,36.5,31.9,25.4,79,71,57,30.07,29.98,60,60,60,0.00
2012-11-18,52.8,44.3,34.1,38.3,34.1,29.4,83,68,56,29.98,29.90,60,60,60,0.00
2012-11-19,49.5,40.1,27.6,36.3,31.7,24.0,87,73,57,30.11,29.89,60,60,60,0.00
2012-11-20,49.9,35.7,21.8,32.1,26.4,18.3,89,71,43,30.12,29.89,60,60,60,0.00
2012-11-21,59.3,44.5,32.7,36.7,32.1,26.6,80,63,41,29.90,29.60,60,60,60,0.00
2012-11-22,40.6,27.8,12.8,33.6,23.0,7.8,89,82,74,30.22,29.59,60,60,60,0.00
2012-11-23,17.8,14.0,6.5,10.5,7.7,1.1,83,75,69,30.39,30.22,60,60,60,0.00
2012-11-24,30.3,18.6,5.8,24.0,12.1,0.4,82,75,70,30.29,29.82,60,60,60,0.00
2012-11-25,29.3,20.9,6.7,23.3,13.4,0.2,78,73,62,30.25,29.91,60,60,60,0.00
2012-11-26,23.9,13.8,2.6,10.7,3.6,-3.8,75,64,49,30.36,30.14,60,60,60,0.00
2012-11-27,26.4,23.1,19.4,20.4,16.1,10.5,79,74,63,30.21,30.07,60,60,60,0.00
2012-11-28,36.6,27.4,18.8,26.0,20.1,13.7,80,74,62,30.23,30.01,60,60,60,0.00
2012-11-29,26.7,20.2,14.4,21.4,13.8,8.5,82,76,69,30.14,30.08,60,60,60,0.00
2012-11-30,35.3,29.6,26.4,30.6,24.5,20.7,86,81,77,30.13,29.83,60,60,60,0.00
2012-12-1,41.8,36.0,31.8,32.2,30.2,28.0,87,80,64,29.90,29.72,60,60,60,0.00
2012-12-2,49.4,38.7,29.3,38.2,32.2,26.7,94,79,61,29.91,29.50,60,60,60,0.03
2012-12-3,49.4,42.2,22.5,40.9,31.4,11.9,89,66,53,29.97,29.47,60,60,60,0.04
2012-12-4,23.6,18.8,15.4,13.8,9.0,6.1,74,65,54,30.30,29.97,60,60,60,0.00
2012-12-5,39.3,28.6,15.6,26.0,15.9,8.8,75,59,47,30.27,29.72,60,60,60,0.00
2012-12-6,39.1,29.6,21.6,28.2,20.2,16.0,80,68,56,30.00,29.73,60,60,60,0.00
2012-12-7,21.9,18.3,14.8,16.9,10.9,7.8,83,73,65,30.07,30.00,60,60,60,0.00
2012-12-8,31.2,25.5,18.6,25.2,19.7,9.8,87,79,68,30.03,29.92,60,60,60,0.00
2012-12-9,19.9,5.3,-5.9,15.9,-1.9,-14.3,84,72,59,30.21,30.01,60,60,60,0.00
2012-12-10,9.2,2.0,-7.0,2.4,-5.4,-14.8,79,70,66,30.13,29.80,60,60,60,0.00
2012-12-11,12.4,7.8,4.7,3.9,0.6,-3.0,78,72,63,29.94,29.80,60,60,60,0.00
2012-12-12,28.4,17.9,8.1,17.1,10.7,1.0,80,73,61,29.98,29.76,60,60,60,0.00
2012-12-13,18.4,12.8,8.4,10.4,6.0,2.1,79,74,66,30.12,29.98,60,60,60,0.00
2012-12-14,31.6,22.6,12.1,22.5,15.9,6.3,84,75,67,30.06,29.76,60,60,60,0.00
2012-12-15,27.3,22.9,13.5,22.0,17.4,8.2,83,79,71,29.80,29.68,60,60,60,0.00
2012-12-16,23.0,20.5,15.1,18.0,15.8,9.8,86,82,79,29.87,29.80,60,60,60,0.00
2012-12-17,22.4,18.2,15.1,17.8,13.9,11.0,85,83,78,29.86,29.69,60,60,60,0.00
2012-12-18,28.2,25.4,22.2,25.0,21.3,17.5,89,84,80,29.77,29.68,60,60,60,0.00
2012-12-19,27.8,21.4,17.5,24.4,14.7,9.7,87,75,64,30.06,29.77,60,60,60,0.00
2012-12-20,17.5,9.5,-1.6,11.8,2.9,-7.6,79,74,67,30.19,30.06,60,60,60,0.00
2012-12-21,11.4,7.9,-1.0,3.5,1.4,-6.7,79,74,67,30.24,30.06,60,60,60,0.00
2012-12-22,14.1,9.5,3.7,7.1,2.6,-2.7,77,73,67,30.17,30.02,60,60,60,0.00
2012-12-23,5.2,2.9,0.5,-1.2,-3.7,-6.4,76,73,71,30.18,30.12,60,60,60,0.00
2012-12-24,2.2,-4.2,-9.1,-3.9,-11.6,-16.2,76,70,65,30.34,30.13,60,60,60,0.00
2012-12-25,1.7,-4.9,-10.5,-5.5,-12.7,-18.1,72,68,62,30.45,30.34,60,60,60,0.00
2012-12-26,14.0,5.0,-1.2,4.9,-1.7,-7.2,76,73,63,30.34,30.20,60,60,60,0.00
2012-12-27,16.5,10.7,-0.2,10.5,4.9,-5.9,82,77,69,30.22,30.12,60,60,60,0.00
2012-12-28,16.4,11.2,6.3,11.2,6.2,1.2,84,80,73,30.12,30.03,60,60,60,0.00
2012-12-29,8.6,4.8,-1.2,1.8,-2.2,-8.6,78,72,66,30.09,30.03,60,60,60,0.00
2012-12-30,20.2,13.1,5.4,14.0,6.1,-0.5,83,73,64,30.10,29.90,60,60,60,0.00
2012-12-31,11.4,0.1,-5.4,4.1,-7.7,-12.1,77,69,59,30.25,30.10,60,60,60,0.00
2013-1-1,19.9,8.6,-7.7,14.7,2.7,-14.6,83,76,71,30.21,29.91,60,60,60,0.00